createdAt,value
2023-05-05T00:02:23.211Z,101058.63
2023-05-05T00:04:49.610Z,101060.56
2023-05-05T00:07:17.299Z,101057.25
2023-05-05T00:09:43.702Z,101054.94
2023-05-05T00:12:10.144Z,101053.41
2023-05-05T00:14:36.584Z,101050.91
2023-05-05T00:17:03.025Z,101054.59
2023-05-05T00:19:29.444Z,101048.63
2023-05-05T00:21:55.806Z,101043.28
2023-05-05T00:24:23.730Z,101047.34
2023-05-05T00:26:50.121Z,101042.03
2023-05-05T00:29:16.480Z,101042.16
2023-05-05T00:31:42.920Z,101042.09
2023-05-05T00:34:09.358Z,101040.59
2023-05-05T00:36:35.692Z,101045.00
2023-05-05T00:39:02.084Z,101035.72
2023-05-05T00:41:29.808Z,101032.69
2023-05-05T00:43:56.169Z,101031.19
2023-05-05T00:46:24.221Z,101024.81
2023-05-05T00:48:50.935Z,101024.28
2023-05-05T00:51:18.095Z,101016.69
2023-05-05T00:53:44.722Z,101023.03
2023-05-05T00:56:11.853Z,101020.25
2023-05-05T00:58:41.519Z,101014.97
2023-05-05T01:01:08.176Z,101019.31
2023-05-05T01:03:36.004Z,101016.47
2023-05-05T01:06:11.328Z,101009.34
2023-05-05T01:08:51.025Z,100996.94
2023-05-05T01:11:25.193Z,101005.59
2023-05-05T01:14:05.785Z,101004.59
2023-05-05T01:16:36.721Z,101006.06
2023-05-05T01:19:17.298Z,100991.59
2023-05-05T01:21:48.132Z,100995.84
2023-05-05T01:24:37.967Z,100993.53
2023-05-05T01:27:28.934Z,100990.19
2023-05-05T01:30:05.222Z,100989.75
2023-05-05T01:32:38.468Z,100988.59
2023-05-05T01:35:13.568Z,100987.03
2023-05-05T01:37:46.501Z,100991.22
2023-05-05T01:40:15.312Z,100991.38
2023-05-05T01:42:43.894Z,100993.81
2023-05-05T01:45:12.686Z,100988.09
2023-05-05T01:47:43.405Z,100993.47
2023-05-05T01:50:12.093Z,100990.09
2023-05-05T01:52:40.071Z,100993.81
2023-05-05T01:55:08.752Z,100982.22
2023-05-05T01:57:38.390Z,100977.31
2023-05-05T02:00:07.284Z,100983.03
2023-05-05T02:02:36.075Z,100979.28
2023-05-05T02:05:06.330Z,100978.44
2023-05-05T02:07:33.865Z,100977.16
2023-05-05T02:10:02.073Z,100968.47
2023-05-05T02:12:30.983Z,100978.66
2023-05-05T02:15:01.255Z,100976.44
2023-05-05T02:17:29.360Z,100977.00
2023-05-05T02:19:58.101Z,100970.66
2023-05-05T02:22:25.827Z,100976.88
2023-05-05T02:24:52.302Z,100978.66
2023-05-05T02:27:20.036Z,100971.31
2023-05-05T02:29:49.242Z,100971.03
2023-05-05T02:32:20.299Z,100965.03
2023-05-05T02:34:49.838Z,100968.75
2023-05-05T02:37:21.385Z,100968.28
2023-05-05T02:39:54.368Z,100978.91
2023-05-05T02:42:22.761Z,100966.00
2023-05-05T02:44:51.678Z,100960.63
2023-05-05T02:47:18.056Z,100963.84
2023-05-05T02:49:44.441Z,100963.34
2023-05-05T02:52:10.854Z,100962.25
2023-05-05T02:54:37.283Z,100962.63
2023-05-05T02:57:04.989Z,100960.72
2023-05-05T02:59:37.475Z,100963.69
2023-05-05T03:02:14.412Z,100957.50
2023-05-05T03:04:45.020Z,100966.41
2023-05-05T03:07:15.890Z,100960.66
2023-05-05T03:09:49.578Z,100954.28
2023-05-05T03:12:19.912Z,100959.09
2023-05-05T03:14:48.503Z,100952.66
2023-05-05T03:17:18.432Z,100952.25
2023-05-05T03:19:45.949Z,100948.75
2023-05-05T03:22:12.760Z,100962.91
2023-05-05T03:24:39.114Z,100967.47
2023-05-05T03:27:05.528Z,100958.75
2023-05-05T03:29:33.250Z,100964.22
2023-05-05T03:31:59.744Z,100964.53
2023-05-05T03:34:26.426Z,100965.13
2023-05-05T03:36:52.825Z,100958.94
2023-05-05T03:39:19.193Z,100954.16
2023-05-05T03:41:45.566Z,100963.44
2023-05-05T03:44:11.932Z,100954.69
2023-05-05T03:46:39.720Z,100964.25
2023-05-05T03:49:06.097Z,100959.44
2023-05-05T03:51:32.480Z,100957.34
2023-05-05T03:53:58.844Z,100960.28
2023-05-05T03:56:25.212Z,100956.38
2023-05-05T03:58:51.580Z,100959.69
2023-05-05T04:01:17.990Z,100950.97
2023-05-05T04:03:45.750Z,100950.19
2023-05-05T04:06:12.124Z,100948.44
2023-05-05T04:08:38.533Z,100950.84
2023-05-05T04:11:04.986Z,100953.00
2023-05-05T04:13:31.359Z,100949.31
2023-05-05T04:15:57.750Z,100958.41
2023-05-05T04:18:24.174Z,100958.38
2023-05-05T04:20:51.982Z,100966.03
2023-05-05T04:23:18.383Z,100968.94
2023-05-05T04:25:44.853Z,100967.94
2023-05-05T04:28:11.240Z,100973.63
2023-05-05T04:30:37.584Z,100972.66
2023-05-05T04:33:04.242Z,100979.22
2023-05-05T04:35:30.697Z,100970.38
2023-05-05T04:37:58.397Z,100970.53
2023-05-05T04:40:24.837Z,100968.81
2023-05-05T04:42:51.238Z,100957.63
2023-05-05T04:45:18.225Z,100953.94
2023-05-05T04:47:44.676Z,100944.00
2023-05-05T04:50:11.248Z,100957.31
2023-05-05T04:52:37.789Z,100959.66
2023-05-05T04:55:06.579Z,100970.84
2023-05-05T04:57:32.942Z,100978.31
2023-05-05T05:00:00.447Z,100967.66
2023-05-05T05:02:26.937Z,100962.38
2023-05-05T05:04:53.346Z,100962.88
2023-05-05T05:07:19.738Z,100949.31
2023-05-05T05:09:46.173Z,100945.13
2023-05-05T05:12:13.942Z,100938.06
2023-05-05T05:14:40.351Z,100934.91
2023-05-05T05:17:07.029Z,100934.81
2023-05-05T05:19:33.909Z,100935.16
2023-05-05T05:22:00.301Z,100936.91
2023-05-05T05:24:26.777Z,100945.34
2023-05-05T05:26:53.270Z,100947.63
2023-05-05T05:29:20.983Z,100939.28
2023-05-05T05:31:47.444Z,100934.50
2023-05-05T05:34:13.840Z,100936.56
2023-05-05T05:36:40.219Z,100929.59
2023-05-05T05:39:06.619Z,100935.16
2023-05-05T05:41:33.111Z,100939.53
2023-05-05T05:43:59.535Z,100961.91
2023-05-05T05:46:27.493Z,100974.03
2023-05-05T05:48:53.906Z,100972.94
2023-05-05T05:51:20.271Z,100976.97
2023-05-05T05:53:46.645Z,100977.53
2023-05-05T05:56:13.065Z,100968.94
2023-05-05T05:58:39.478Z,100973.28
2023-05-05T06:01:05.963Z,100969.88
2023-05-05T06:03:33.855Z,100968.72
2023-05-05T06:06:01.057Z,100973.47
2023-05-05T06:08:27.414Z,100971.06
2023-05-05T06:10:53.802Z,100964.84
2023-05-05T06:13:20.243Z,100965.16
2023-05-05T06:15:46.694Z,100972.53
2023-05-05T06:18:13.277Z,100952.84
2023-05-05T06:20:41.025Z,100971.06
2023-05-05T06:23:07.595Z,100978.72
2023-05-05T06:25:33.981Z,100974.00
2023-05-05T06:28:00.372Z,100980.38
2023-05-05T06:30:27.058Z,100980.53
2023-05-05T06:32:53.528Z,100967.38
2023-05-05T06:35:19.952Z,100975.88
2023-05-05T06:37:47.703Z,100976.88
2023-05-05T06:40:14.252Z,100975.72
2023-05-05T06:42:40.627Z,100975.94
2023-05-05T06:45:08.501Z,100966.97
2023-05-05T06:47:35.483Z,100960.59
2023-05-05T06:50:01.956Z,100964.69
2023-05-05T06:52:28.363Z,100958.00
2023-05-05T06:54:56.110Z,100956.81
2023-05-05T06:57:22.476Z,100948.38
2023-05-05T06:59:48.920Z,100947.56
2023-05-05T07:02:15.309Z,100951.94
2023-05-05T07:04:42.348Z,100955.81
2023-05-05T07:07:08.703Z,100959.75
2023-05-05T07:09:35.091Z,100964.75
2023-05-05T07:12:02.931Z,100969.44
2023-05-05T07:14:29.352Z,100967.69
2023-05-05T07:16:55.805Z,100967.97
2023-05-05T07:19:22.307Z,100974.03
2023-05-05T07:21:48.705Z,100973.84
2023-05-05T07:24:15.057Z,100966.84
2023-05-05T07:26:41.519Z,100963.97
2023-05-05T07:29:09.397Z,100969.31
2023-05-05T07:31:35.808Z,100962.69
2023-05-05T07:34:02.234Z,100966.63
2023-05-05T07:36:28.638Z,100963.97
2023-05-05T07:38:55.110Z,100958.09
2023-05-05T07:41:21.558Z,100963.81
2023-05-05T07:43:48.081Z,100961.53
2023-05-05T07:46:15.799Z,100969.72
2023-05-05T07:48:42.219Z,100965.16
2023-05-05T07:51:09.352Z,100963.75
2023-05-05T07:53:35.791Z,100966.63
2023-05-05T07:56:02.386Z,100969.13
2023-05-05T07:58:28.825Z,100972.41
2023-05-05T08:00:55.248Z,100984.47
2023-05-05T08:03:23.098Z,100997.59
2023-05-05T08:05:51.698Z,101004.53
2023-05-05T08:08:18.261Z,101011.09
2023-05-05T08:10:44.644Z,101006.63
2023-05-05T08:13:11.263Z,101012.00
2023-05-05T08:15:37.677Z,101012.84
2023-05-05T08:18:04.099Z,101017.91
2023-05-05T08:20:31.919Z,101025.09
2023-05-05T08:22:59.020Z,101027.22
2023-05-05T08:25:25.450Z,101024.75
2023-05-05T08:27:52.158Z,101045.09
2023-05-05T08:30:18.621Z,101040.72
2023-05-05T08:32:45.096Z,101057.28
2023-05-05T08:35:12.155Z,101056.94
2023-05-05T08:37:40.166Z,101048.50
2023-05-05T08:40:07.809Z,101047.41
2023-05-05T08:42:38.409Z,101035.13
2023-05-05T08:45:08.303Z,101018.41
2023-05-05T08:47:35.252Z,101018.06
2023-05-05T08:50:02.559Z,101015.00
2023-05-05T08:52:37.610Z,101020.97
2023-05-05T08:55:13.405Z,101015.00
2023-05-05T08:57:43.975Z,101020.09
2023-05-05T09:00:12.697Z,101011.81
2023-05-05T09:02:40.373Z,101008.63
2023-05-05T09:05:07.731Z,100997.09
2023-05-05T09:07:34.994Z,100982.41
2023-05-05T09:10:03.347Z,100985.56
2023-05-05T09:12:31.616Z,100984.38
2023-05-05T09:14:59.405Z,100987.19
2023-05-05T09:17:26.538Z,100975.19
2023-05-05T09:20:01.163Z,100982.03
2023-05-05T09:22:35.457Z,100980.44
2023-05-05T09:25:02.351Z,100983.78
2023-05-05T09:27:36.171Z,100984.56
2023-05-05T09:30:05.135Z,100989.91
2023-05-05T09:32:43.145Z,100992.97
2023-05-05T09:35:09.829Z,100990.88
2023-05-05T09:37:36.376Z,100984.28
2023-05-05T09:40:02.813Z,100987.59
2023-05-05T09:42:29.603Z,100984.34
2023-05-05T09:44:59.110Z,100992.09
2023-05-05T09:47:35.166Z,100998.13
2023-05-05T09:50:02.067Z,101014.00
2023-05-05T09:52:28.632Z,101019.28
2023-05-05T09:54:55.745Z,101017.34
2023-05-05T09:57:26.961Z,101005.81
2023-05-05T09:59:54.911Z,101000.19
2023-05-05T10:02:29.488Z,101006.72
2023-05-05T10:05:08.216Z,101006.50
2023-05-05T10:07:36.038Z,100998.13
2023-05-05T10:10:03.698Z,101007.88
2023-05-05T10:12:31.614Z,101004.81
2023-05-05T10:15:01.301Z,101002.63
2023-05-05T10:17:30.295Z,101003.13
2023-05-05T10:19:57.985Z,101001.69
2023-05-05T10:22:28.293Z,100988.53
2023-05-05T10:24:57.653Z,100983.88
2023-05-05T10:27:32.955Z,100986.41
2023-05-05T10:30:04.169Z,100974.69
2023-05-05T10:32:56.917Z,100971.38
2023-05-05T10:35:24.747Z,100973.16
2023-05-05T10:37:53.021Z,100960.84
2023-05-05T10:40:22.103Z,100967.19
2023-05-05T10:42:49.709Z,100967.19
2023-05-05T10:45:16.598Z,100971.81
2023-05-05T10:47:43.585Z,100970.72
2023-05-05T10:50:17.970Z,100974.75
2023-05-05T10:52:53.409Z,100971.34
2023-05-05T10:55:27.728Z,100969.19
2023-05-05T10:57:54.199Z,100963.88
2023-05-05T11:03:22.988Z,100965.72
2023-05-05T11:06:11.720Z,100960.75
2023-05-05T11:08:39.305Z,100950.91
2023-05-05T11:11:06.378Z,100956.50
2023-05-05T11:13:32.838Z,100948.47
2023-05-05T11:16:00.559Z,100944.06
2023-05-05T11:18:35.983Z,100945.53
2023-05-05T11:21:14.155Z,100941.09
2023-05-05T11:23:41.365Z,100959.28
2023-05-05T11:26:07.926Z,100956.59
2023-05-05T11:28:34.662Z,100946.88
2023-05-05T11:31:20.414Z,100936.66
2023-05-05T11:33:48.404Z,100940.19
2023-05-05T11:36:16.277Z,100928.78
2023-05-05T11:39:03.771Z,100936.22
2023-05-05T11:41:57.368Z,100928.50
2023-05-05T11:44:30.211Z,100933.16
2023-05-05T11:47:30.573Z,100932.09
2023-05-05T11:49:58.592Z,100937.09
2023-05-05T11:52:26.672Z,100940.66
2023-05-05T11:54:53.125Z,100948.09
2023-05-05T11:57:27.030Z,100951.69
2023-05-05T11:59:55.033Z,100948.53
2023-05-05T12:02:22.204Z,100942.25
2023-05-05T12:04:49.120Z,100945.00
2023-05-05T12:07:18.150Z,100948.03
2023-05-05T12:09:45.648Z,100946.41
2023-05-05T12:12:12.875Z,100946.03
2023-05-05T12:14:47.089Z,100941.91
2023-05-05T12:17:13.550Z,100935.75
2023-05-05T12:19:45.464Z,100926.38
2023-05-05T12:22:20.564Z,100922.81
2023-05-05T12:24:55.100Z,100921.88
2023-05-05T12:27:21.984Z,100928.84
2023-05-05T12:29:48.977Z,100925.53
2023-05-05T12:32:20.801Z,100931.94
2023-05-05T12:34:48.027Z,100931.25
2023-05-05T12:37:14.807Z,100923.22
2023-05-05T12:39:42.517Z,100917.06
2023-05-05T12:42:08.956Z,100916.16
2023-05-05T12:44:35.896Z,100917.91
2023-05-05T12:47:02.449Z,100912.88
2023-05-05T12:49:29.136Z,100909.25
2023-05-05T12:51:56.647Z,100916.41
2023-05-05T12:54:24.042Z,100911.03
2023-05-05T12:56:51.941Z,100909.06
2023-05-05T12:59:30.688Z,100901.06
2023-05-05T13:01:58.652Z,100908.28
2023-05-05T13:04:26.014Z,100909.16
2023-05-05T13:07:08.115Z,100896.72
2023-05-05T13:09:34.556Z,100898.06
2023-05-05T13:12:02.707Z,100910.84
2023-05-05T13:14:29.519Z,100892.94
2023-05-05T13:16:56.092Z,100902.72
2023-05-05T13:19:22.702Z,100900.91
2023-05-05T13:21:49.096Z,100887.16
2023-05-05T13:26:44.878Z,100877.69
2023-05-05T13:29:12.616Z,100872.09
2023-05-05T13:31:39.065Z,100871.03
2023-05-05T13:34:05.529Z,100870.72
2023-05-05T13:36:31.970Z,100861.75
2023-05-05T13:38:58.338Z,100861.56
2023-05-05T13:41:24.699Z,100861.16
2023-05-05T13:43:51.152Z,100845.84
2023-05-05T13:46:20.294Z,100851.06
2023-05-05T13:48:46.964Z,100850.78
2023-05-05T13:51:13.384Z,100841.13
2023-05-05T13:53:39.808Z,100840.03
2023-05-05T13:56:06.510Z,100833.59
2023-05-05T13:58:33.148Z,100835.84
2023-05-05T14:00:59.590Z,100839.03
2023-05-05T14:03:27.314Z,100828.78
2023-05-05T14:05:53.767Z,100815.25
2023-05-05T14:08:20.152Z,100822.00
2023-05-05T14:10:48.073Z,100818.34
2023-05-05T14:13:15.400Z,100816.97
2023-05-05T14:15:42.150Z,100800.19
2023-05-05T14:18:08.722Z,100804.69
2023-05-05T14:20:36.494Z,100806.34
2023-05-05T14:23:02.901Z,100795.53
2023-05-05T14:25:29.336Z,100792.81
2023-05-05T14:27:55.765Z,100787.00
2023-05-05T14:30:22.470Z,100785.59
2023-05-05T14:32:48.932Z,100779.09
2023-05-05T14:35:15.586Z,100777.47
2023-05-05T14:37:43.280Z,100775.69
2023-05-05T14:40:10.184Z,100783.63
2023-05-05T14:42:36.557Z,100775.91
2023-05-05T14:45:03.269Z,100788.16
2023-05-05T14:47:29.690Z,100781.34
2023-05-05T14:49:56.113Z,100784.81
2023-05-05T14:52:22.950Z,100780.50
2023-05-05T14:54:50.658Z,100786.97
2023-05-05T14:57:17.098Z,100776.72
2023-05-05T14:59:43.470Z,100780.63
2023-05-05T15:02:09.834Z,100779.22
2023-05-05T15:04:36.257Z,100773.81
2023-05-05T15:07:02.638Z,100775.66
2023-05-05T15:09:29.008Z,100763.69
2023-05-05T15:11:56.707Z,100768.13
2023-05-05T15:14:23.081Z,100762.81
2023-05-05T15:16:49.455Z,100769.25
2023-05-05T15:19:16.016Z,100764.56
2023-05-05T15:21:42.404Z,100765.06
2023-05-05T15:24:08.804Z,100766.66
2023-05-05T15:26:35.214Z,100768.28
2023-05-05T15:29:02.901Z,100770.44
2023-05-05T15:31:29.308Z,100779.44
2023-05-05T15:33:55.744Z,100772.44
2023-05-05T15:36:22.160Z,100782.00
2023-05-05T15:38:48.548Z,100779.22
2023-05-05T15:41:14.934Z,100777.66
2023-05-05T15:43:41.345Z,100781.16
2023-05-05T15:46:09.021Z,100783.53
2023-05-05T15:48:35.404Z,100783.38
2023-05-05T15:51:01.773Z,100792.00
2023-05-05T15:53:28.274Z,100788.72
2023-05-05T15:55:54.701Z,100792.31
2023-05-05T15:58:21.120Z,100795.00
2023-05-05T16:00:47.510Z,100804.53
2023-05-05T16:03:15.352Z,100804.19
2023-05-05T16:05:41.776Z,100813.84
2023-05-05T16:08:08.121Z,100816.31
2023-05-05T16:10:34.525Z,100814.72
2023-05-05T16:13:00.892Z,100829.09
2023-05-05T16:15:27.559Z,100832.50
2023-05-05T16:17:54.117Z,100835.53
2023-05-05T16:20:21.896Z,100844.81
2023-05-05T16:22:48.286Z,100852.91
2023-05-05T16:25:14.878Z,100854.94
2023-05-05T16:27:41.346Z,100859.38
2023-05-05T16:30:09.912Z,100866.41
2023-05-05T16:32:36.372Z,100866.97
2023-05-05T16:35:02.843Z,100867.56
2023-05-05T16:37:30.575Z,100872.25
2023-05-05T16:39:56.994Z,100878.34
2023-05-05T16:42:23.405Z,100874.84
2023-05-05T16:44:49.804Z,100874.56
2023-05-05T16:47:16.248Z,100868.75
2023-05-05T16:49:42.623Z,100864.81
2023-05-05T16:52:08.984Z,100860.53
2023-05-05T16:54:36.669Z,100852.94
2023-05-05T16:57:03.157Z,100860.53
2023-05-05T16:59:31.519Z,100843.59
2023-05-05T17:01:58.179Z,100843.34
2023-05-05T17:04:24.605Z,100847.97
2023-05-05T17:06:50.952Z,100853.16
2023-05-05T17:09:17.371Z,100866.25
2023-05-05T17:11:45.062Z,100871.72
2023-05-05T17:14:11.479Z,100869.00
2023-05-05T17:16:38.121Z,100881.03
2023-05-05T17:19:04.566Z,100876.50
2023-05-05T17:21:30.946Z,100883.63
2023-05-05T17:23:57.342Z,100892.28
2023-05-05T17:26:23.741Z,100906.69
2023-05-05T17:28:51.407Z,100909.78
2023-05-05T17:31:17.970Z,100917.19
2023-05-05T17:33:44.396Z,100904.16
2023-05-05T17:36:10.755Z,100909.25
2023-05-05T17:38:37.200Z,100904.28
2023-05-05T17:41:03.569Z,100905.78
2023-05-05T17:43:29.956Z,100915.81
2023-05-05T17:45:57.722Z,100906.88
2023-05-05T17:48:24.097Z,100909.41
2023-05-05T17:50:50.531Z,100908.41
2023-05-05T17:53:16.930Z,100904.31
2023-05-05T17:55:44.513Z,100911.28
2023-05-05T17:58:10.996Z,100909.69
2023-05-05T18:00:37.442Z,100902.34
2023-05-05T18:03:05.210Z,100906.41
2023-05-05T18:05:31.884Z,100895.66
2023-05-05T18:07:58.251Z,100891.25
2023-05-05T18:10:25.469Z,100893.47
2023-05-05T18:12:51.867Z,100893.41
2023-05-05T18:15:18.349Z,100894.63
2023-05-05T18:17:50.868Z,100891.78
2023-05-05T18:20:18.842Z,100888.06
2023-05-05T18:22:45.194Z,100890.06
2023-05-05T18:25:11.778Z,100890.84
2023-05-05T18:27:39.674Z,100884.09
2023-05-05T18:30:07.528Z,100891.06
2023-05-05T18:32:34.018Z,100881.78
2023-05-05T18:35:00.905Z,100893.06
2023-05-05T18:37:28.650Z,100897.22
2023-05-05T18:39:55.031Z,100897.06
2023-05-05T18:42:21.442Z,100907.50
2023-05-05T18:44:47.803Z,100919.09
2023-05-05T18:47:14.181Z,100912.97
2023-05-05T18:49:40.552Z,100909.25
2023-05-05T18:52:06.908Z,100903.72
2023-05-05T18:54:36.226Z,100920.00
2023-05-05T18:57:04.003Z,100924.59
2023-05-05T18:59:30.341Z,100924.44
2023-05-05T19:01:56.712Z,100922.84
2023-05-05T19:04:30.596Z,100924.88
2023-05-05T19:06:57.965Z,100931.81
2023-05-05T19:09:24.386Z,100938.22
2023-05-05T19:11:52.111Z,100938.88
2023-05-05T19:14:18.498Z,100935.91
2023-05-05T19:16:45.040Z,100933.41
2023-05-05T19:19:11.441Z,100938.47
2023-05-05T19:21:38.310Z,100942.13
2023-05-05T19:24:06.373Z,100946.06
2023-05-05T19:26:32.733Z,100947.09
2023-05-05T19:29:00.507Z,100942.47
2023-05-05T19:31:26.982Z,100945.75
2023-05-05T19:33:55.395Z,100946.56
2023-05-05T19:36:21.798Z,100948.03
2023-05-05T19:38:48.172Z,100939.44
2023-05-05T19:41:14.592Z,100945.41
2023-05-05T19:43:40.956Z,100932.06
2023-05-05T19:46:08.697Z,100925.69
2023-05-05T19:48:35.086Z,100937.59
2023-05-05T19:51:01.503Z,100933.53
2023-05-05T19:53:27.897Z,100933.22
2023-05-05T19:55:54.335Z,100930.66
2023-05-05T19:58:20.692Z,100938.50
2023-05-05T20:00:47.160Z,100929.78
2023-05-05T20:03:14.956Z,100930.59
2023-05-05T20:05:41.329Z,100934.25
2023-05-05T20:08:07.837Z,100935.88
2023-05-05T20:10:34.357Z,100940.00
2023-05-05T20:13:00.817Z,100939.16
2023-05-05T20:15:27.241Z,100939.00
2023-05-05T20:17:53.716Z,100928.97
2023-05-05T20:20:22.281Z,100938.50
2023-05-05T20:22:49.279Z,100929.63
2023-05-05T20:25:15.796Z,100928.00
2023-05-05T20:27:42.744Z,100924.19
2023-05-05T20:30:10.381Z,100935.03
2023-05-05T20:32:37.079Z,100929.63
2023-05-05T20:35:03.826Z,100932.75
2023-05-05T20:37:31.732Z,100929.94
2023-05-05T20:39:58.117Z,100928.44
2023-05-05T20:42:24.478Z,100934.91
2023-05-05T20:44:50.909Z,100928.66
2023-05-05T20:47:17.278Z,100927.31
2023-05-05T20:49:43.630Z,100924.72
2023-05-05T20:52:10.056Z,100921.22
2023-05-05T20:54:37.770Z,100918.59
2023-05-05T20:57:04.245Z,100910.88
2023-05-05T20:59:30.631Z,100904.94
2023-05-05T21:01:57.151Z,100904.69
2023-05-05T21:04:23.630Z,100895.34
2023-05-05T21:06:50.219Z,100893.00
2023-05-05T21:09:16.636Z,100893.03
2023-05-05T21:11:44.345Z,100880.50
2023-05-05T21:14:10.729Z,100880.34
2023-05-05T21:16:37.141Z,100871.31
2023-05-05T21:19:03.526Z,100878.69
2023-05-05T21:21:29.900Z,100866.44
2023-05-05T21:23:56.253Z,100872.56
2023-05-05T21:26:22.605Z,100872.34
2023-05-05T21:28:50.396Z,100878.31
2023-05-05T21:33:46.080Z,100882.75
2023-05-05T21:36:12.778Z,100880.09
2023-05-05T21:38:39.139Z,100877.84
2023-05-05T21:41:05.537Z,100873.53
2023-05-05T21:43:32.423Z,100874.84
2023-05-05T21:46:00.844Z,100866.47
2023-05-05T21:48:27.305Z,100863.69
2023-05-05T21:50:53.688Z,100860.91
2023-05-05T21:53:20.591Z,100863.19
2023-05-05T21:55:47.268Z,100861.56
2023-05-05T21:58:13.974Z,100864.84
2023-05-05T22:00:40.379Z,100851.50
2023-05-05T22:03:08.263Z,100863.19
2023-05-05T22:05:34.800Z,100863.34
2023-05-05T22:08:01.179Z,100856.75
2023-05-05T22:10:27.578Z,100861.72
2023-05-05T22:12:54.100Z,100856.44
2023-05-05T22:15:21.228Z,100858.91
2023-05-05T22:17:48.259Z,100855.63
2023-05-05T22:20:16.148Z,100858.91
2023-05-05T22:22:42.517Z,100857.44
2023-05-05T22:25:09.818Z,100851.50
2023-05-05T22:27:36.432Z,100866.28
2023-05-05T22:30:03.290Z,100869.78
2023-05-05T22:32:30.307Z,100875.53
2023-05-05T22:34:56.700Z,100867.44
2023-05-05T22:37:24.393Z,100864.97
2023-05-05T22:39:50.769Z,100869.59
2023-05-05T22:42:17.338Z,100869.75
2023-05-05T22:44:44.114Z,100864.00
2023-05-05T22:47:10.564Z,100866.16
2023-05-05T22:49:37.168Z,100872.19
2023-05-05T22:52:03.685Z,100865.16
2023-05-05T22:54:31.373Z,100866.16
2023-05-05T22:56:57.751Z,100866.78
2023-05-05T22:59:24.183Z,100864.56
2023-05-05T23:01:51.212Z,100866.97
2023-05-05T23:04:17.701Z,100857.75
2023-05-05T23:06:44.133Z,100862.50
2023-05-05T23:09:10.500Z,100862.78
2023-05-05T23:11:38.334Z,100859.22
2023-05-05T23:14:04.728Z,100864.84
2023-05-05T23:16:31.118Z,100864.50
2023-05-05T23:18:57.604Z,100866.31
2023-05-05T23:21:24.078Z,100867.78
2023-05-05T23:23:50.435Z,100870.91
2023-05-05T23:26:16.931Z,100873.38
2023-05-05T23:28:44.608Z,100879.94
2023-05-05T23:31:11.081Z,100879.31
2023-05-05T23:33:37.484Z,100877.81
2023-05-05T23:36:04.425Z,100880.97
2023-05-05T23:38:30.887Z,100885.69
2023-05-05T23:40:57.307Z,100878.50
2023-05-05T23:43:23.719Z,100890.31
2023-05-05T23:45:51.433Z,100885.84
2023-05-05T23:48:17.846Z,100892.94
2023-05-05T23:50:44.242Z,100890.81
2023-05-05T23:53:10.622Z,100890.97
2023-05-05T23:55:37.056Z,100899.84
2023-05-05T23:58:03.425Z,100896.72
